sensor_id;sensor_type;location;lat;lon;timestamp;pressure;altitude;pressure_sealevel;temperature;humidity
66627;BME280;53498;50.422;14.912;2023-02-10T00:01:15;100799.34;;;-2.99;90.67
66627;BME280;53498;50.422;14.912;2023-02-10T00:03:40;100796.41;;;-2.93;91.25
66627;BME280;53498;50.422;14.912;2023-02-10T00:06:08;100792.09;;;-3.05;91.17
66627;BME280;53498;50.422;14.912;2023-02-10T00:08:46;100798.84;;;-3.05;91.78
66627;BME280;53498;50.422;14.912;2023-02-10T00:11:12;100787.16;;;-3.13;91.24
66627;BME280;53498;50.422;14.912;2023-02-10T00:13:39;100787.25;;;-3.12;91.43
66627;BME280;53498;50.422;14.912;2023-02-10T00:16:07;100783.59;;;-3.15;91.47
66627;BME280;53498;50.422;14.912;2023-02-10T00:18:33;100799.75;;;-3.15;91.86
66627;BME280;53498;50.422;14.912;2023-02-10T00:21:11;100798.06;;;-3.14;91.98
66627;BME280;53498;50.422;14.912;2023-02-10T00:23:37;100792.09;;;-3.15;91.95
66627;BME280;53498;50.422;14.912;2023-02-10T00:26:04;100798.22;;;-3.23;91.88
66627;BME280;53498;50.422;14.912;2023-02-10T00:28:31;100788.03;;;-3.33;92.40
66627;BME280;53498;50.422;14.912;2023-02-10T00:30:57;100784.72;;;-3.32;92.70
66627;BME280;53498;50.422;14.912;2023-02-10T00:33:23;100790.59;;;-3.43;92.53
66627;BME280;53498;50.422;14.912;2023-02-10T00:35:48;100782.31;;;-3.51;92.78
66627;BME280;53498;50.422;14.912;2023-02-10T00:38:14;100780.66;;;-3.61;92.96
66627;BME280;53498;50.422;14.912;2023-02-10T00:40:39;100781.06;;;-3.66;94.03
66627;BME280;53498;50.422;14.912;2023-02-10T00:43:05;100780.69;;;-3.51;94.12
66627;BME280;53498;50.422;14.912;2023-02-10T00:45:30;100783.59;;;-3.56;93.47
66627;BME280;53498;50.422;14.912;2023-02-10T00:47:56;100789.22;;;-3.60;94.23
66627;BME280;53498;50.422;14.912;2023-02-10T00:50:22;100788.94;;;-3.53;93.64
66627;BME280;53498;50.422;14.912;2023-02-10T00:52:47;100781.06;;;-3.66;93.76
66627;BME280;53498;50.422;14.912;2023-02-10T00:55:15;100774.44;;;-3.75;94.20
66627;BME280;53498;50.422;14.912;2023-02-10T00:57:41;100759.94;;;-3.76;94.82
66627;BME280;53498;50.422;14.912;2023-02-10T01:00:07;100751.16;;;-3.89;94.65
66627;BME280;53498;50.422;14.912;2023-02-10T01:02:33;100751.16;;;-3.89;94.65
66627;BME280;53498;50.422;14.912;2023-02-10T01:04:59;100753.94;;;-3.76;95.71
66627;BME280;53498;50.422;14.912;2023-02-10T01:07:25;100748.13;;;-3.65;94.36
66627;BME280;53498;50.422;14.912;2023-02-10T01:09:50;100754.97;;;-3.64;94.18
66627;BME280;53498;50.422;14.912;2023-02-10T01:12:16;100753.72;;;-3.59;94.51
66627;BME280;53498;50.422;14.912;2023-02-10T01:14:42;100759.81;;;-3.57;94.42
66627;BME280;53498;50.422;14.912;2023-02-10T01:17:07;100751.44;;;-3.66;94.09
66627;BME280;53498;50.422;14.912;2023-02-10T01:19:33;100757.66;;;-3.73;93.83
66627;BME280;53498;50.422;14.912;2023-02-10T01:21:58;100751.19;;;-3.69;93.82
66627;BME280;53498;50.422;14.912;2023-02-10T01:24:24;100758.81;;;-3.69;94.27
66627;BME280;53498;50.422;14.912;2023-02-10T01:26:49;100758.19;;;-3.66;93.94
66627;BME280;53498;50.422;14.912;2023-02-10T01:29:15;100765.56;;;-3.69;93.80
66627;BME280;53498;50.422;14.912;2023-02-10T01:31:40;100768.06;;;-3.80;93.78
66627;BME280;53498;50.422;14.912;2023-02-10T01:34:06;100769.72;;;-3.90;94.02
66627;BME280;53498;50.422;14.912;2023-02-10T01:36:32;100770.34;;;-3.93;94.61
66627;BME280;53498;50.422;14.912;2023-02-10T01:38:57;100769.47;;;-3.83;94.89
66627;BME280;53498;50.422;14.912;2023-02-10T01:41:23;100780.41;;;-3.94;94.12
66627;BME280;53498;50.422;14.912;2023-02-10T01:46:44;100787.88;;;-3.96;94.53
66627;BME280;53498;50.422;14.912;2023-02-10T01:49:10;100787.25;;;-4.04;94.40
66627;BME280;53498;50.422;14.912;2023-02-10T01:51:43;100788.47;;;-4.19;94.95
66627;BME280;53498;50.422;14.912;2023-02-10T01:54:13;100778.28;;;-4.29;95.18
66627;BME280;53498;50.422;14.912;2023-02-10T01:56:40;100787.00;;;-4.36;94.96
66627;BME280;53498;50.422;14.912;2023-02-10T01:59:07;100795.38;;;-4.37;95.15
66627;BME280;53498;50.422;14.912;2023-02-10T02:01:32;100793.69;;;-4.47;95.14
66627;BME280;53498;50.422;14.912;2023-02-10T02:04:00;100794.59;;;-4.46;94.80
66627;BME280;53498;50.422;14.912;2023-02-10T02:06:26;100793.97;;;-4.44;95.21
66627;BME280;53498;50.422;14.912;2023-02-10T02:08:52;100790.97;;;-4.29;95.52
66627;BME280;53498;50.422;14.912;2023-02-10T02:14:42;100791.28;;;-4.45;95.51
66627;BME280;53498;50.422;14.912;2023-02-10T02:31:07;100792.72;;;-4.68;96.00
66627;BME280;53498;50.422;14.912;2023-02-10T02:33:52;100798.47;;;-4.60;96.44
66627;BME280;53498;50.422;14.912;2023-02-10T02:36:27;100796.34;;;-4.74;95.76
66627;BME280;53498;50.422;14.912;2023-02-10T02:38:59;100802.31;;;-4.74;97.15
66627;BME280;53498;50.422;14.912;2023-02-10T02:41:26;100804.13;;;-4.73;96.46
66627;BME280;53498;50.422;14.912;2023-02-10T02:43:52;100798.63;;;-4.77;96.63
66627;BME280;53498;50.422;14.912;2023-02-10T02:46:47;100806.78;;;-4.71;96.22
66627;BME280;53498;50.422;14.912;2023-02-10T02:54:26;100797.25;;;-4.74;96.92
66627;BME280;53498;50.422;14.912;2023-02-10T02:59:40;100792.16;;;-4.74;95.87
66627;BME280;53498;50.422;14.912;2023-02-10T03:02:09;100788.44;;;-4.88;96.20
66627;BME280;53498;50.422;14.912;2023-02-10T03:04:37;100790.53;;;-4.92;96.84
66627;BME280;53498;50.422;14.912;2023-02-10T03:07:04;100790.81;;;-4.89;96.38
66627;BME280;53498;50.422;14.912;2023-02-10T03:09:30;100798.56;;;-4.88;96.25
66627;BME280;53498;50.422;14.912;2023-02-10T03:11:56;100809.00;;;-5.03;96.09
66627;BME280;53498;50.422;14.912;2023-02-10T03:14:25;100806.97;;;-5.07;96.32
66627;BME280;53498;50.422;14.912;2023-02-10T03:16:51;100807.75;;;-5.17;96.65
66627;BME280;53498;50.422;14.912;2023-02-10T03:19:16;100804.44;;;-5.07;97.74
66627;BME280;53498;50.422;14.912;2023-02-10T03:21:42;100809.91;;;-5.03;97.19
66627;BME280;53498;50.422;14.912;2023-02-10T03:24:08;100808.41;;;-5.01;97.42
66627;BME280;53498;50.422;14.912;2023-02-10T03:26:35;100813.00;;;-4.97;96.82
66627;BME280;53498;50.422;14.912;2023-02-10T03:29:02;100805.78;;;-5.11;96.06
66627;BME280;53498;50.422;14.912;2023-02-10T03:31:28;100819.28;;;-5.21;96.56
66627;BME280;53498;50.422;14.912;2023-02-10T03:33:53;100822.78;;;-5.29;97.52
66627;BME280;53498;50.422;14.912;2023-02-10T03:36:19;100821.13;;;-5.28;97.18
66627;BME280;53498;50.422;14.912;2023-02-10T03:38:45;100835.63;;;-5.36;96.91
66627;BME280;53498;50.422;14.912;2023-02-10T03:41:11;100826.13;;;-5.39;97.68
66627;BME280;53498;50.422;14.912;2023-02-10T03:43:38;100828.19;;;-5.35;97.96
66627;BME280;53498;50.422;14.912;2023-02-10T03:46:04;100831.41;;;-5.27;97.72
66627;BME280;53498;50.422;14.912;2023-02-10T03:48:30;100831.69;;;-5.24;97.39
66627;BME280;53498;50.422;14.912;2023-02-10T03:50:58;100845.00;;;-5.26;97.36
66627;BME280;53498;50.422;14.912;2023-02-10T03:53:24;100842.28;;;-5.19;97.45
66627;BME280;53498;50.422;14.912;2023-02-10T03:55:50;100837.25;;;-5.28;97.40
66627;BME280;53498;50.422;14.912;2023-02-10T03:58:16;100836.75;;;-5.24;98.06
66627;BME280;53498;50.422;14.912;2023-02-10T04:00:42;100841.16;;;-5.31;96.87
66627;BME280;53498;50.422;14.912;2023-02-10T04:03:07;100842.25;;;-5.38;97.00
66627;BME280;53498;50.422;14.912;2023-02-10T04:05:33;100840.31;;;-5.41;96.45
66627;BME280;53498;50.422;14.912;2023-02-10T04:07:58;100832.13;;;-5.47;96.80
66627;BME280;53498;50.422;14.912;2023-02-10T04:10:24;100841.25;;;-5.49;96.53
66627;BME280;53498;50.422;14.912;2023-02-10T04:12:49;100836.94;;;-5.50;96.58
66627;BME280;53498;50.422;14.912;2023-02-10T04:15:15;100838.81;;;-5.39;97.43
66627;BME280;53498;50.422;14.912;2023-02-10T04:17:40;100840.59;;;-5.38;96.66
66627;BME280;53498;50.422;14.912;2023-02-10T04:20:07;100837.81;;;-5.49;96.87
66627;BME280;53498;50.422;14.912;2023-02-10T04:22:32;100842.38;;;-5.37;97.70
66627;BME280;53498;50.422;14.912;2023-02-10T04:24:58;100840.72;;;-5.36;97.28
66627;BME280;53498;50.422;14.912;2023-02-10T04:27:23;100835.56;;;-5.46;97.32
66627;BME280;53498;50.422;14.912;2023-02-10T04:29:49;100837.00;;;-5.40;96.91
66627;BME280;53498;50.422;14.912;2023-02-10T04:32:14;100848.16;;;-5.56;96.69
66627;BME280;53498;50.422;14.912;2023-02-10T04:34:40;100837.69;;;-5.51;97.33
66627;BME280;53498;50.422;14.912;2023-02-10T04:37:06;100833.63;;;-5.49;97.49
66627;BME280;53498;50.422;14.912;2023-02-10T04:39:31;100832.75;;;-5.49;97.54
66627;BME280;53498;50.422;14.912;2023-02-10T04:41:57;100839.75;;;-5.47;97.17
66627;BME280;53498;50.422;14.912;2023-02-10T04:44:22;100840.78;;;-5.45;97.32
66627;BME280;53498;50.422;14.912;2023-02-10T04:46:48;100851.25;;;-5.50;96.59
66627;BME280;53498;50.422;14.912;2023-02-10T04:49:15;100860.06;;;-5.55;96.73
66627;BME280;53498;50.422;14.912;2023-02-10T04:51:41;100864.75;;;-5.60;96.66
66627;BME280;53498;50.422;14.912;2023-02-10T04:54:07;100869.97;;;-5.67;96.97
66627;BME280;53498;50.422;14.912;2023-02-10T04:56:33;100872.97;;;-5.71;96.94
66627;BME280;53498;50.422;14.912;2023-02-10T04:58:59;100869.88;;;-5.77;97.24
66627;BME280;53498;50.422;14.912;2023-02-10T05:01:24;100864.47;;;-5.72;98.14
66627;BME280;53498;50.422;14.912;2023-02-10T05:03:50;100863.13;;;-5.68;97.42
66627;BME280;53498;50.422;14.912;2023-02-10T05:06:16;100876.84;;;-5.66;97.19
66627;BME280;53498;50.422;14.912;2023-02-10T05:08:42;100876.09;;;-5.65;96.58
66627;BME280;53498;50.422;14.912;2023-02-10T05:11:10;100881.16;;;-5.65;96.74
66627;BME280;53498;50.422;14.912;2023-02-10T05:13:37;100898.59;;;-5.68;96.97
66627;BME280;53498;50.422;14.912;2023-02-10T05:16:03;100897.63;;;-5.79;96.08
66627;BME280;53498;50.422;14.912;2023-02-10T05:18:30;100897.19;;;-5.92;96.75
66627;BME280;53498;50.422;14.912;2023-02-10T05:20:56;100896.47;;;-5.91;97.44
66627;BME280;53498;50.422;14.912;2023-02-10T05:23:22;100897.34;;;-5.91;97.84
66627;BME280;53498;50.422;14.912;2023-02-10T05:25:48;100899.72;;;-5.92;98.48
66627;BME280;53498;50.422;14.912;2023-02-10T05:28:13;100907.78;;;-5.88;97.47
66627;BME280;53498;50.422;14.912;2023-02-10T05:30:39;100902.25;;;-5.84;97.40
66627;BME280;53498;50.422;14.912;2023-02-10T05:33:05;100905.94;;;-5.80;97.27
66627;BME280;53498;50.422;14.912;2023-02-10T05:35:31;100913.44;;;-5.82;96.29
66627;BME280;53498;50.422;14.912;2023-02-10T05:37:56;100910.03;;;-5.91;96.96
66627;BME280;53498;50.422;14.912;2023-02-10T05:40:22;100915.09;;;-5.91;97.66
66627;BME280;53498;50.422;14.912;2023-02-10T05:42:49;100908.53;;;-5.89;96.71
66627;BME280;53498;50.422;14.912;2023-02-10T05:45:14;100913.06;;;-5.95;96.88
66627;BME280;53498;50.422;14.912;2023-02-10T05:47:40;100912.59;;;-5.99;96.79
66627;BME280;53498;50.422;14.912;2023-02-10T05:50:06;100917.69;;;-5.99;97.10
66627;BME280;53498;50.422;14.912;2023-02-10T05:52:32;100920.81;;;-6.02;97.00
66627;BME280;53498;50.422;14.912;2023-02-10T05:54:57;100928.69;;;-5.99;97.09
66627;BME280;53498;50.422;14.912;2023-02-10T05:57:23;100930.03;;;-5.94;96.67
66627;BME280;53498;50.422;14.912;2023-02-10T05:59:48;100931.13;;;-6.09;97.08
66627;BME280;53498;50.422;14.912;2023-02-10T06:02:14;100938.13;;;-6.15;97.17
66627;BME280;53498;50.422;14.912;2023-02-10T06:04:39;100937.38;;;-6.14;97.92
66627;BME280;53498;50.422;14.912;2023-02-10T06:07:05;100953.44;;;-5.96;97.33
66627;BME280;53498;50.422;14.912;2023-02-10T06:09:31;100948.84;;;-6.00;97.43
66627;BME280;53498;50.422;14.912;2023-02-10T06:11:56;100951.31;;;-5.92;97.55
66627;BME280;53498;50.422;14.912;2023-02-10T06:14:22;100957.91;;;-6.02;97.16
66627;BME280;53498;50.422;14.912;2023-02-10T06:16:48;100960.03;;;-6.07;97.35
66627;BME280;53498;50.422;14.912;2023-02-10T06:19:13;100971.94;;;-6.15;97.92
66627;BME280;53498;50.422;14.912;2023-02-10T06:21:39;100965.31;;;-5.87;97.63
66627;BME280;53498;50.422;14.912;2023-02-10T06:24:05;100965.59;;;-5.84;97.52
66627;BME280;53498;50.422;14.912;2023-02-10T06:26:30;100967.72;;;-5.88;97.13
66627;BME280;53498;50.422;14.912;2023-02-10T06:28:56;100968.28;;;-5.82;97.71
66627;BME280;53498;50.422;14.912;2023-02-10T06:31:22;100975.13;;;-5.72;97.58
66627;BME280;53498;50.422;14.912;2023-02-10T06:33:48;100972.44;;;-5.74;97.07
66627;BME280;53498;50.422;14.912;2023-02-10T06:36:13;100964.63;;;-5.58;98.15
66627;BME280;53498;50.422;14.912;2023-02-10T06:38:39;100960.38;;;-5.40;97.65
66627;BME280;53498;50.422;14.912;2023-02-10T06:41:05;100967.41;;;-5.38;96.70
66627;BME280;53498;50.422;14.912;2023-02-10T06:43:31;100969.63;;;-5.32;96.23
66627;BME280;53498;50.422;14.912;2023-02-10T06:45:57;100969.94;;;-5.38;96.44
66627;BME280;53498;50.422;14.912;2023-02-10T06:48:22;100965.44;;;-5.31;96.48
66627;BME280;53498;50.422;14.912;2023-02-10T06:50:48;100968.34;;;-5.18;96.05
66627;BME280;53498;50.422;14.912;2023-02-10T06:53:14;100972.22;;;-5.13;95.90
66627;BME280;53498;50.422;14.912;2023-02-10T06:55:40;100964.41;;;-5.06;96.00
66627;BME280;53498;50.422;14.912;2023-02-10T06:58:05;100956.59;;;-4.99;96.16
66627;BME280;53498;50.422;14.912;2023-02-10T07:00:31;100965.81;;;-4.91;96.15
66627;BME280;53498;50.422;14.912;2023-02-10T07:02:59;100969.25;;;-4.90;96.49
66627;BME280;53498;50.422;14.912;2023-02-10T07:05:25;100972.25;;;-4.67;96.76
66627;BME280;53498;50.422;14.912;2023-02-10T07:07:51;100979.50;;;-4.61;96.18
66627;BME280;53498;50.422;14.912;2023-02-10T07:10:19;100987.47;;;-4.67;94.94
66627;BME280;53498;50.422;14.912;2023-02-10T07:12:50;100993.63;;;-4.73;95.80
66627;BME280;53498;50.422;14.912;2023-02-10T07:15:17;100987.28;;;-4.59;95.46
66627;BME280;53498;50.422;14.912;2023-02-10T07:17:44;100978.78;;;-4.60;94.70
66627;BME280;53498;50.422;14.912;2023-02-10T07:20:10;100985.00;;;-4.56;95.28
66627;BME280;53498;50.422;14.912;2023-02-10T07:22:36;100987.88;;;-4.62;94.86
66627;BME280;53498;50.422;14.912;2023-02-10T07:25:02;100992.69;;;-4.65;95.46
66627;BME280;53498;50.422;14.912;2023-02-10T07:27:27;100991.66;;;-4.48;95.18
66627;BME280;53498;50.422;14.912;2023-02-10T07:29:53;100989.50;;;-4.35;96.14
66627;BME280;53498;50.422;14.912;2023-02-10T07:32:18;100991.88;;;-4.36;95.42
66627;BME280;53498;50.422;14.912;2023-02-10T07:34:44;101008.78;;;-4.37;95.37
66627;BME280;53498;50.422;14.912;2023-02-10T07:37:11;101009.53;;;-4.19;96.71
66627;BME280;53498;50.422;14.912;2023-02-10T07:39:37;101009.31;;;-4.12;95.36
66627;BME280;53498;50.422;14.912;2023-02-10T07:42:02;101004.72;;;-4.16;95.73
66627;BME280;53498;50.422;14.912;2023-02-10T07:44:28;101009.97;;;-4.04;96.24
66627;BME280;53498;50.422;14.912;2023-02-10T07:46:53;101016.94;;;-3.93;95.60
66627;BME280;53498;50.422;14.912;2023-02-10T07:49:19;101017.28;;;-3.99;95.06
66627;BME280;53498;50.422;14.912;2023-02-10T07:51:45;101020.09;;;-3.96;95.48
66627;BME280;53498;50.422;14.912;2023-02-10T07:54:11;101011.28;;;-3.80;95.43
66627;BME280;53498;50.422;14.912;2023-02-10T07:56:36;101021.13;;;-3.64;94.91
66627;BME280;53498;50.422;14.912;2023-02-10T07:59:02;101023.06;;;-3.62;94.00
66627;BME280;53498;50.422;14.912;2023-02-10T08:01:28;101024.63;;;-3.54;93.83
66627;BME280;53498;50.422;14.912;2023-02-10T08:03:54;101036.00;;;-3.40;94.38
66627;BME280;53498;50.422;14.912;2023-02-10T08:06:21;101024.47;;;-3.55;94.24
66627;BME280;53498;50.422;14.912;2023-02-10T08:08:47;101028.91;;;-3.63;95.13
66627;BME280;53498;50.422;14.912;2023-02-10T08:11:13;101029.13;;;-3.70;94.92
66627;BME280;53498;50.422;14.912;2023-02-10T08:13:39;101036.59;;;-3.53;95.25
66627;BME280;53498;50.422;14.912;2023-02-10T08:16:05;101036.16;;;-3.28;94.89
66627;BME280;53498;50.422;14.912;2023-02-10T08:18:40;101033.38;;;-3.31;94.26
66627;BME280;53498;50.422;14.912;2023-02-10T08:21:06;101025.38;;;-3.26;95.14
66627;BME280;53498;50.422;14.912;2023-02-10T08:23:32;101018.34;;;-3.28;94.76
66627;BME280;53498;50.422;14.912;2023-02-10T08:25:57;101018.38;;;-3.18;95.03
66627;BME280;53498;50.422;14.912;2023-02-10T08:28:23;101022.22;;;-3.13;94.37
66627;BME280;53498;50.422;14.912;2023-02-10T08:30:49;101022.50;;;-2.99;94.90
66627;BME280;53498;50.422;14.912;2023-02-10T08:33:14;101026.81;;;-2.98;94.05
66627;BME280;53498;50.422;14.912;2023-02-10T08:35:40;101027.31;;;-3.13;94.51
66627;BME280;53498;50.422;14.912;2023-02-10T08:38:07;101028.72;;;-3.06;94.79
66627;BME280;53498;50.422;14.912;2023-02-10T08:40:34;101036.75;;;-3.02;94.93
66627;BME280;53498;50.422;14.912;2023-02-10T08:43:01;101040.94;;;-2.92;95.05
66627;BME280;53498;50.422;14.912;2023-02-10T08:45:26;101047.72;;;-2.92;94.58
66627;BME280;53498;50.422;14.912;2023-02-10T08:47:52;101043.13;;;-2.86;94.70
66627;BME280;53498;50.422;14.912;2023-02-10T08:50:17;101040.84;;;-2.73;94.67
66627;BME280;53498;50.422;14.912;2023-02-10T08:52:43;101062.63;;;-2.87;93.68
66627;BME280;53498;50.422;14.912;2023-02-10T08:55:08;101058.69;;;-2.83;94.48
66627;BME280;53498;50.422;14.912;2023-02-10T08:57:37;101051.44;;;-2.68;94.55
66627;BME280;53498;50.422;14.912;2023-02-10T09:00:07;101059.34;;;-2.65;93.69
66627;BME280;53498;50.422;14.912;2023-02-10T09:02:33;101057.06;;;-2.72;93.26
66627;BME280;53498;50.422;14.912;2023-02-10T09:04:58;101046.97;;;-2.61;93.67
66627;BME280;53498;50.422;14.912;2023-02-10T09:07:24;101039.34;;;-2.61;93.13
66627;BME280;53498;50.422;14.912;2023-02-10T09:09:49;101028.91;;;-2.53;93.29
66627;BME280;53498;50.422;14.912;2023-02-10T09:12:15;101030.94;;;-2.39;92.61
66627;BME280;53498;50.422;14.912;2023-02-10T09:14:41;101026.50;;;-2.31;92.41
66627;BME280;53498;50.422;14.912;2023-02-10T09:17:07;101037.03;;;-2.17;92.04
66627;BME280;53498;50.422;14.912;2023-02-10T09:19:37;101040.63;;;-2.25;91.57
66627;BME280;53498;50.422;14.912;2023-02-10T09:22:05;101044.69;;;-2.27;91.35
66627;BME280;53498;50.422;14.912;2023-02-10T09:24:31;101054.38;;;-2.13;91.72
66627;BME280;53498;50.422;14.912;2023-02-10T09:26:57;101051.06;;;-2.12;91.61
66627;BME280;53498;50.422;14.912;2023-02-10T09:29:23;101053.13;;;-2.28;90.76
66627;BME280;53498;50.422;14.912;2023-02-10T09:31:51;101053.22;;;-2.26;91.38
66627;BME280;53498;50.422;14.912;2023-02-10T09:34:17;101044.06;;;-2.24;91.14
66627;BME280;53498;50.422;14.912;2023-02-10T09:36:43;101055.28;;;-2.12;91.22
66627;BME280;53498;50.422;14.912;2023-02-10T09:39:08;101052.75;;;-2.22;91.61
66627;BME280;53498;50.422;14.912;2023-02-10T09:44:16;101053.47;;;-2.03;91.28
66627;BME280;53498;50.422;14.912;2023-02-10T09:47:06;101052.81;;;-1.90;91.09
66627;BME280;53498;50.422;14.912;2023-02-10T09:49:58;101058.34;;;-1.64;89.98
66627;BME280;53498;50.422;14.912;2023-02-10T09:55:16;101064.69;;;-1.48;89.00
66627;BME280;53498;50.422;14.912;2023-02-10T09:57:44;101065.50;;;-1.59;88.92
66627;BME280;53498;50.422;14.912;2023-02-10T10:00:29;101068.41;;;-1.55;88.63
66627;BME280;53498;50.422;14.912;2023-02-10T10:02:57;101074.16;;;-1.47;88.60
66627;BME280;53498;50.422;14.912;2023-02-10T10:07:58;101066.72;;;-1.44;87.83
66627;BME280;53498;50.422;14.912;2023-02-10T10:10:36;101070.13;;;-1.33;87.97
66627;BME280;53498;50.422;14.912;2023-02-10T10:13:20;101064.31;;;-1.21;86.35
66627;BME280;53498;50.422;14.912;2023-02-10T10:16:13;101059.56;;;-0.94;86.41
66627;BME280;53498;50.422;14.912;2023-02-10T10:21:29;101062.97;;;-0.61;83.40
66627;BME280;53498;50.422;14.912;2023-02-10T10:24:38;101071.91;;;-0.78;83.74
66627;BME280;53498;50.422;14.912;2023-02-10T10:27:23;101081.34;;;-0.77;84.10
66627;BME280;53498;50.422;14.912;2023-02-10T10:29:57;101077.59;;;-0.71;83.69
66627;BME280;53498;50.422;14.912;2023-02-10T10:32:37;101070.97;;;-0.57;83.47
66627;BME280;53498;50.422;14.912;2023-02-10T10:35:20;101064.31;;;-0.21;82.50
66627;BME280;53498;50.422;14.912;2023-02-10T10:37:47;101063.28;;;-0.23;81.50
66627;BME280;53498;50.422;14.912;2023-02-10T10:40:17;101064.81;;;-0.37;80.01
66627;BME280;53498;50.422;14.912;2023-02-10T10:42:49;101069.47;;;-0.09;80.24
66627;BME280;53498;50.422;14.912;2023-02-10T10:45:28;101062.69;;;0.15;79.44
66627;BME280;53498;50.422;14.912;2023-02-10T10:48:06;101055.22;;;0.18;78.59
66627;BME280;53498;50.422;14.912;2023-02-10T10:50:33;101058.16;;;0.22;77.81
66627;BME280;53498;50.422;14.912;2023-02-10T10:53:03;101062.09;;;-0.05;77.86
66627;BME280;53498;50.422;14.912;2023-02-10T10:55:35;101062.50;;;-0.22;79.17
66627;BME280;53498;50.422;14.912;2023-02-10T10:58:09;101067.78;;;-0.09;79.64
66627;BME280;53498;50.422;14.912;2023-02-10T11:00:49;101058.91;;;0.21;79.50
66627;BME280;53498;50.422;14.912;2023-02-10T11:03:15;101062.78;;;0.05;78.42
66627;BME280;53498;50.422;14.912;2023-02-10T11:05:41;101062.25;;;-0.03;78.73
66627;BME280;53498;50.422;14.912;2023-02-10T11:08:22;101056.66;;;-0.09;79.26
66627;BME280;53498;50.422;14.912;2023-02-10T11:10:53;101046.84;;;-0.27;79.05
66627;BME280;53498;50.422;14.912;2023-02-10T11:13:21;101049.06;;;-0.19;79.90
66627;BME280;53498;50.422;14.912;2023-02-10T11:15:47;101052.22;;;-0.12;79.87
66627;BME280;53498;50.422;14.912;2023-02-10T11:18:21;101049.53;;;-0.13;79.48
66627;BME280;53498;50.422;14.912;2023-02-10T11:21:05;101051.78;;;-0.06;80.43
66627;BME280;53498;50.422;14.912;2023-02-10T11:23:31;101051.75;;;-0.18;80.03
66627;BME280;53498;50.422;14.912;2023-02-10T11:26:03;101042.84;;;-0.11;80.55
66627;BME280;53498;50.422;14.912;2023-02-10T11:28:31;101043.75;;;-0.11;80.59
66627;BME280;53498;50.422;14.912;2023-02-10T11:31:19;101046.00;;;0.08;81.28
66627;BME280;53498;50.422;14.912;2023-02-10T11:34:17;101032.53;;;0.11;80.38
66627;BME280;53498;50.422;14.912;2023-02-10T11:36:46;101041.44;;;0.16;80.14
66627;BME280;53498;50.422;14.912;2023-02-10T11:39:36;101041.78;;;0.32;79.93
66627;BME280;53498;50.422;14.912;2023-02-10T11:42:18;101047.22;;;0.25;79.08
66627;BME280;53498;50.422;14.912;2023-02-10T11:45:00;101040.31;;;0.36;78.90
66627;BME280;53498;50.422;14.912;2023-02-10T11:47:29;101046.78;;;0.19;79.56
66627;BME280;53498;50.422;14.912;2023-02-10T11:49:55;101052.78;;;0.43;79.16
66627;BME280;53498;50.422;14.912;2023-02-10T11:52:23;101051.81;;;0.29;78.49
66627;BME280;53498;50.422;14.912;2023-02-10T11:54:52;101052.47;;;0.27;79.12
66627;BME280;53498;50.422;14.912;2023-02-10T11:57:30;101057.47;;;0.13;79.16
66627;BME280;53498;50.422;14.912;2023-02-10T12:06:12;101049.34;;;0.31;80.19
66627;BME280;53498;50.422;14.912;2023-02-10T12:12:10;101055.78;;;0.49;80.05
66627;BME280;53498;50.422;14.912;2023-02-10T12:14:53;101047.00;;;0.57;80.22
66627;BME280;53498;50.422;14.912;2023-02-10T12:17:28;101045.31;;;0.69;79.39
66627;BME280;53498;50.422;14.912;2023-02-10T12:25:46;101041.22;;;0.48;79.76
66627;BME280;53498;50.422;14.912;2023-02-10T12:34:02;101019.22;;;0.75;79.90
66627;BME280;53498;50.422;14.912;2023-02-10T12:37:04;100992.72;;;0.75;79.54
66627;BME280;53498;50.422;14.912;2023-02-10T12:42:50;100995.59;;;0.91;79.10
66627;BME280;53498;50.422;14.912;2023-02-10T12:45:39;100990.84;;;0.97;78.94
66627;BME280;53498;50.422;14.912;2023-02-10T12:48:36;101000.72;;;0.91;78.67
66627;BME280;53498;50.422;14.912;2023-02-10T12:54:00;101003.84;;;0.75;79.90
66627;BME280;53498;50.422;14.912;2023-02-10T12:56:35;100994.03;;;0.81;80.40
66627;BME280;53498;50.422;14.912;2023-02-10T12:59:29;100991.22;;;0.90;82.79
66627;BME280;53498;50.422;14.912;2023-02-10T13:02:05;100991.13;;;0.88;83.20
66627;BME280;53498;50.422;14.912;2023-02-10T13:04:53;100992.88;;;1.01;82.53
66627;BME280;53498;50.422;14.912;2023-02-10T13:12:27;100986.28;;;1.30;81.62
66627;BME280;53498;50.422;14.912;2023-02-10T13:15:04;100995.41;;;1.51;81.27
66627;BME280;53498;50.422;14.912;2023-02-10T13:17:46;100989.00;;;1.20;82.10
66627;BME280;53498;50.422;14.912;2023-02-10T13:25:34;100984.28;;;1.26;82.91
66627;BME280;53498;50.422;14.912;2023-02-10T13:28:26;100981.84;;;1.41;83.03
66627;BME280;53498;50.422;14.912;2023-02-10T13:35:44;101001.09;;;1.85;82.59
66627;BME280;53498;50.422;14.912;2023-02-10T13:38:16;100994.44;;;1.62;82.94
66627;BME280;53498;50.422;14.912;2023-02-10T13:40:49;100995.28;;;1.50;84.37
66627;BME280;53498;50.422;14.912;2023-02-10T13:43:31;100988.91;;;1.56;84.17
66627;BME280;53498;50.422;14.912;2023-02-10T13:45:58;100989.22;;;1.61;84.37
66627;BME280;53498;50.422;14.912;2023-02-10T13:48:27;100994.63;;;1.52;84.17
66627;BME280;53498;50.422;14.912;2023-02-10T13:51:05;100993.53;;;1.49;84.78
66627;BME280;53498;50.422;14.912;2023-02-10T13:58:58;100996.97;;;1.49;84.39
66627;BME280;53498;50.422;14.912;2023-02-10T14:01:36;100995.44;;;1.65;83.77
66627;BME280;53498;50.422;14.912;2023-02-10T14:04:05;100990.44;;;1.79;83.12
66627;BME280;53498;50.422;14.912;2023-02-10T14:06:40;100994.88;;;1.82;82.67
66627;BME280;53498;50.422;14.912;2023-02-10T14:09:19;100992.13;;;1.92;82.59
66627;BME280;53498;50.422;14.912;2023-02-10T14:11:45;100989.34;;;1.89;82.16
66627;BME280;53498;50.422;14.912;2023-02-10T14:14:29;100993.28;;;1.84;81.61
66627;BME280;53498;50.422;14.912;2023-02-10T14:17:28;101001.19;;;1.87;82.29